sensor_id;sensor_type;location;lat;lon;timestamp;P1;durP1;ratioP1;P2;durP2;ratioP2
23745;SDS011;12053;48.878;9.632;2022-07-04T00:00:53;2.28;;;1.40;;
23745;SDS011;12053;48.878;9.632;2022-07-04T00:03:20;2.60;;;1.40;;
23745;SDS011;12053;48.878;9.632;2022-07-04T00:05:47;1.02;;;0.98;;
23745;SDS011;12053;48.878;9.632;2022-07-04T00:08:14;5.82;;;1.30;;
23745;SDS011;12053;48.878;9.632;2022-07-04T00:10:41;2.40;;;0.85;;
23745;SDS011;12053;48.878;9.632;2022-07-04T00:13:08;1.20;;;1.10;;
23745;SDS011;12053;48.878;9.632;2022-07-04T00:15:36;2.15;;;1.00;;
23745;SDS011;12053;48.878;9.632;2022-07-04T00:18:03;3.35;;;1.10;;
23745;SDS011;12053;48.878;9.632;2022-07-04T00:20:30;3.75;;;1.13;;
23745;SDS011;12053;48.878;9.632;2022-07-04T00:22:57;2.50;;;1.27;;
23745;SDS011;12053;48.878;9.632;2022-07-04T00:25:25;1.10;;;1.00;;
23745;SDS011;12053;48.878;9.632;2022-07-04T00:27:52;2.47;;;1.27;;
23745;SDS011;12053;48.878;9.632;2022-07-04T00:30:19;2.05;;;1.20;;
23745;SDS011;12053;48.878;9.632;2022-07-04T00:32:46;1.38;;;1.27;;
23745;SDS011;12053;48.878;9.632;2022-07-04T00:35:13;1.55;;;1.20;;
23745;SDS011;12053;48.878;9.632;2022-07-04T00:37:41;4.72;;;1.42;;
23745;SDS011;12053;48.878;9.632;2022-07-04T00:40:08;1.33;;;1.10;;
23745;SDS011;12053;48.878;9.632;2022-07-04T00:42:35;2.25;;;1.30;;
23745;SDS011;12053;48.878;9.632;2022-07-04T00:45:02;1.20;;;1.10;;
23745;SDS011;12053;48.878;9.632;2022-07-04T00:47:30;2.13;;;1.23;;
23745;SDS011;12053;48.878;9.632;2022-07-04T00:49:57;3.80;;;1.38;;
23745;SDS011;12053;48.878;9.632;2022-07-04T00:52:24;1.70;;;1.30;;
23745;SDS011;12053;48.878;9.632;2022-07-04T00:54:51;1.80;;;1.23;;
23745;SDS011;12053;48.878;9.632;2022-07-04T00:57:18;2.17;;;1.20;;
23745;SDS011;12053;48.878;9.632;2022-07-04T00:59:46;1.85;;;1.30;;
23745;SDS011;12053;48.878;9.632;2022-07-04T01:02:13;1.55;;;1.10;;
23745;SDS011;12053;48.878;9.632;2022-07-04T01:04:40;3.38;;;1.30;;
23745;SDS011;12053;48.878;9.632;2022-07-04T01:07:09;1.98;;;1.15;;
23745;SDS011;12053;48.878;9.632;2022-07-04T01:09:38;2.30;;;1.33;;
23745;SDS011;12053;48.878;9.632;2022-07-04T01:12:06;2.47;;;1.48;;
23745;SDS011;12053;48.878;9.632;2022-07-04T01:14:36;5.18;;;1.45;;
23745;SDS011;12053;48.878;9.632;2022-07-04T01:17:04;3.38;;;1.35;;
23745;SDS011;12053;48.878;9.632;2022-07-04T01:19:31;3.50;;;1.30;;
23745;SDS011;12053;48.878;9.632;2022-07-04T01:21:58;4.57;;;1.52;;
23745;SDS011;12053;48.878;9.632;2022-07-04T01:24:32;2.45;;;1.40;;
23745;SDS011;12053;48.878;9.632;2022-07-04T01:26:59;4.47;;;1.83;;
23745;SDS011;12053;48.878;9.632;2022-07-04T01:29:26;2.17;;;1.45;;
23745;SDS011;12053;48.878;9.632;2022-07-04T01:31:54;2.97;;;1.40;;
23745;SDS011;12053;48.878;9.632;2022-07-04T01:34:21;1.85;;;1.25;;
23745;SDS011;12053;48.878;9.632;2022-07-04T01:36:48;4.38;;;1.50;;
23745;SDS011;12053;48.878;9.632;2022-07-04T01:39:15;2.10;;;1.35;;
23745;SDS011;12053;48.878;9.632;2022-07-04T01:41:42;2.42;;;1.30;;
23745;SDS011;12053;48.878;9.632;2022-07-04T01:44:09;2.58;;;1.25;;
23745;SDS011;12053;48.878;9.632;2022-07-04T01:46:37;2.28;;;1.58;;
23745;SDS011;12053;48.878;9.632;2022-07-04T01:49:04;1.98;;;1.30;;
23745;SDS011;12053;48.878;9.632;2022-07-04T01:51:31;1.85;;;1.50;;
23745;SDS011;12053;48.878;9.632;2022-07-04T01:53:58;4.05;;;1.85;;
23745;SDS011;12053;48.878;9.632;2022-07-04T01:56:25;3.13;;;1.27;;
23745;SDS011;12053;48.878;9.632;2022-07-04T01:58:53;5.53;;;1.42;;
23745;SDS011;12053;48.878;9.632;2022-07-04T02:01:20;2.33;;;1.60;;
23745;SDS011;12053;48.878;9.632;2022-07-04T02:03:57;2.70;;;1.42;;
23745;SDS011;12053;48.878;9.632;2022-07-04T02:06:24;3.72;;;1.38;;
23745;SDS011;12053;48.878;9.632;2022-07-04T02:08:51;2.97;;;1.55;;
23745;SDS011;12053;48.878;9.632;2022-07-04T02:11:37;5.22;;;2.10;;
23745;SDS011;12053;48.878;9.632;2022-07-04T02:14:23;2.30;;;1.63;;
23745;SDS011;12053;48.878;9.632;2022-07-04T02:16:51;2.35;;;1.80;;
23745;SDS011;12053;48.878;9.632;2022-07-04T02:19:18;3.15;;;1.73;;
23745;SDS011;12053;48.878;9.632;2022-07-04T02:21:45;3.00;;;1.60;;
23745;SDS011;12053;48.878;9.632;2022-07-04T02:24:12;4.07;;;1.55;;
23745;SDS011;12053;48.878;9.632;2022-07-04T02:26:40;1.73;;;1.60;;
23745;SDS011;12053;48.878;9.632;2022-07-04T02:29:07;2.72;;;1.50;;
23745;SDS011;12053;48.878;9.632;2022-07-04T02:31:34;2.05;;;1.58;;
23745;SDS011;12053;48.878;9.632;2022-07-04T02:34:01;1.52;;;1.38;;
23745;SDS011;12053;48.878;9.632;2022-07-04T02:36:28;3.78;;;1.50;;
23745;SDS011;12053;48.878;9.632;2022-07-04T02:38:55;3.42;;;1.55;;
23745;SDS011;12053;48.878;9.632;2022-07-04T02:41:23;4.32;;;1.80;;
23745;SDS011;12053;48.878;9.632;2022-07-04T02:43:50;1.83;;;1.60;;
23745;SDS011;12053;48.878;9.632;2022-07-04T02:46:17;2.53;;;1.75;;
23745;SDS011;12053;48.878;9.632;2022-07-04T02:48:45;4.28;;;1.85;;
23745;SDS011;12053;48.878;9.632;2022-07-04T02:51:12;3.58;;;1.80;;
23745;SDS011;12053;48.878;9.632;2022-07-04T02:53:39;2.10;;;1.55;;
23745;SDS011;12053;48.878;9.632;2022-07-04T02:56:06;2.58;;;1.50;;
23745;SDS011;12053;48.878;9.632;2022-07-04T02:58:34;4.45;;;1.55;;
23745;SDS011;12053;48.878;9.632;2022-07-04T03:01:01;4.05;;;1.90;;
23745;SDS011;12053;48.878;9.632;2022-07-04T03:03:28;5.38;;;1.80;;
23745;SDS011;12053;48.878;9.632;2022-07-04T03:05:55;6.20;;;1.75;;
23745;SDS011;12053;48.878;9.632;2022-07-04T03:08:29;5.95;;;1.75;;
23745;SDS011;12053;48.878;9.632;2022-07-04T03:10:56;4.30;;;2.10;;
23745;SDS011;12053;48.878;9.632;2022-07-04T03:13:24;4.20;;;1.80;;
23745;SDS011;12053;48.878;9.632;2022-07-04T03:15:51;2.97;;;1.73;;
23745;SDS011;12053;48.878;9.632;2022-07-04T03:18:18;2.22;;;1.73;;
23745;SDS011;12053;48.878;9.632;2022-07-04T03:20:46;4.40;;;1.92;;
23745;SDS011;12053;48.878;9.632;2022-07-04T03:23:13;3.03;;;1.65;;
23745;SDS011;12053;48.878;9.632;2022-07-04T03:25:40;1.83;;;1.70;;
23745;SDS011;12053;48.878;9.632;2022-07-04T03:28:08;3.65;;;1.67;;
23745;SDS011;12053;48.878;9.632;2022-07-04T03:30:35;4.10;;;1.73;;
23745;SDS011;12053;48.878;9.632;2022-07-04T03:33:02;5.45;;;1.73;;
23745;SDS011;12053;48.878;9.632;2022-07-04T03:35:30;5.00;;;1.77;;
23745;SDS011;12053;48.878;9.632;2022-07-04T03:37:57;3.97;;;1.90;;
23745;SDS011;12053;48.878;9.632;2022-07-04T03:40:24;3.45;;;1.85;;
23745;SDS011;12053;48.878;9.632;2022-07-04T03:42:54;2.45;;;1.83;;
23745;SDS011;12053;48.878;9.632;2022-07-04T03:45:21;4.70;;;2.00;;
23745;SDS011;12053;48.878;9.632;2022-07-04T03:47:48;2.60;;;1.90;;
23745;SDS011;12053;48.878;9.632;2022-07-04T03:50:16;3.38;;;1.58;;
23745;SDS011;12053;48.878;9.632;2022-07-04T03:52:43;4.15;;;1.70;;
23745;SDS011;12053;48.878;9.632;2022-07-04T03:55:10;5.82;;;1.90;;
23745;SDS011;12053;48.878;9.632;2022-07-04T03:57:37;2.40;;;2.10;;
23745;SDS011;12053;48.878;9.632;2022-07-04T04:00:04;4.88;;;1.88;;
23745;SDS011;12053;48.878;9.632;2022-07-04T04:02:33;3.28;;;1.52;;
23745;SDS011;12053;48.878;9.632;2022-07-04T04:05:01;4.13;;;1.90;;
23745;SDS011;12053;48.878;9.632;2022-07-04T04:07:47;3.47;;;1.65;;
23745;SDS011;12053;48.878;9.632;2022-07-04T04:10:14;3.50;;;1.95;;
23745;SDS011;12053;48.878;9.632;2022-07-04T04:12:41;2.80;;;1.67;;
23745;SDS011;12053;48.878;9.632;2022-07-04T04:15:08;2.53;;;1.52;;
23745;SDS011;12053;48.878;9.632;2022-07-04T04:17:35;3.38;;;2.03;;
23745;SDS011;12053;48.878;9.632;2022-07-04T04:20:03;4.90;;;2.05;;
23745;SDS011;12053;48.878;9.632;2022-07-04T04:22:30;2.72;;;1.95;;
23745;SDS011;12053;48.878;9.632;2022-07-04T04:24:57;6.10;;;2.13;;
23745;SDS011;12053;48.878;9.632;2022-07-04T04:27:25;2.90;;;1.90;;
23745;SDS011;12053;48.878;9.632;2022-07-04T04:29:52;2.95;;;1.77;;
23745;SDS011;12053;48.878;9.632;2022-07-04T04:32:19;5.95;;;2.00;;
23745;SDS011;12053;48.878;9.632;2022-07-04T04:34:46;1.95;;;1.80;;
23745;SDS011;12053;48.878;9.632;2022-07-04T04:37:13;2.65;;;1.70;;
23745;SDS011;12053;48.878;9.632;2022-07-04T04:39:40;2.72;;;1.75;;
23745;SDS011;12053;48.878;9.632;2022-07-04T04:42:08;1.63;;;1.50;;
23745;SDS011;12053;48.878;9.632;2022-07-04T04:44:35;3.33;;;1.60;;
23745;SDS011;12053;48.878;9.632;2022-07-04T04:47:02;5.35;;;2.25;;
23745;SDS011;12053;48.878;9.632;2022-07-04T04:49:29;6.22;;;1.92;;
23745;SDS011;12053;48.878;9.632;2022-07-04T04:51:57;2.30;;;2.10;;
23745;SDS011;12053;48.878;9.632;2022-07-04T04:54:24;3.50;;;2.15;;
23745;SDS011;12053;48.878;9.632;2022-07-04T04:56:51;5.30;;;2.00;;
23745;SDS011;12053;48.878;9.632;2022-07-04T04:59:18;1.90;;;1.52;;
23745;SDS011;12053;48.878;9.632;2022-07-04T05:01:45;2.22;;;2.03;;
23745;SDS011;12053;48.878;9.632;2022-07-04T05:04:12;6.63;;;2.25;;
23745;SDS011;12053;48.878;9.632;2022-07-04T05:06:41;2.20;;;1.90;;
23745;SDS011;12053;48.878;9.632;2022-07-04T05:09:08;2.83;;;2.00;;
23745;SDS011;12053;48.878;9.632;2022-07-04T05:11:35;6.45;;;1.90;;
23745;SDS011;12053;48.878;9.632;2022-07-04T05:14:02;3.28;;;2.17;;
23745;SDS011;12053;48.878;9.632;2022-07-04T05:16:30;1.85;;;1.60;;
23745;SDS011;12053;48.878;9.632;2022-07-04T05:18:57;3.03;;;1.77;;
23745;SDS011;12053;48.878;9.632;2022-07-04T05:21:24;2.15;;;1.80;;
23745;SDS011;12053;48.878;9.632;2022-07-04T05:23:52;2.38;;;1.80;;
23745;SDS011;12053;48.878;9.632;2022-07-04T05:26:19;4.53;;;2.10;;
23745;SDS011;12053;48.878;9.632;2022-07-04T05:28:46;3.00;;;1.85;;
23745;SDS011;12053;48.878;9.632;2022-07-04T05:31:13;4.57;;;2.05;;
23745;SDS011;12053;48.878;9.632;2022-07-04T05:33:41;5.72;;;2.00;;
23745;SDS011;12053;48.878;9.632;2022-07-04T05:36:08;4.97;;;1.70;;
23745;SDS011;12053;48.878;9.632;2022-07-04T05:38:35;3.42;;;1.75;;
23745;SDS011;12053;48.878;9.632;2022-07-04T05:41:03;3.33;;;1.80;;
23745;SDS011;12053;48.878;9.632;2022-07-04T05:43:30;4.65;;;2.08;;
23745;SDS011;12053;48.878;9.632;2022-07-04T05:45:57;2.47;;;1.88;;
23745;SDS011;12053;48.878;9.632;2022-07-04T05:48:24;2.65;;;1.98;;
23745;SDS011;12053;48.878;9.632;2022-07-04T05:50:51;6.10;;;1.80;;
23745;SDS011;12053;48.878;9.632;2022-07-04T05:53:19;3.85;;;2.15;;
23745;SDS011;12053;48.878;9.632;2022-07-04T05:55:46;5.38;;;1.90;;
23745;SDS011;12053;48.878;9.632;2022-07-04T05:58:13;3.13;;;1.90;;
23745;SDS011;12053;48.878;9.632;2022-07-04T06:00:40;3.75;;;1.95;;
23745;SDS011;12053;48.878;9.632;2022-07-04T06:03:08;2.03;;;1.70;;
23745;SDS011;12053;48.878;9.632;2022-07-04T06:05:35;3.45;;;1.70;;
23745;SDS011;12053;48.878;9.632;2022-07-04T06:08:02;9.52;;;2.10;;
23745;SDS011;12053;48.878;9.632;2022-07-04T06:10:30;8.68;;;2.10;;
23745;SDS011;12053;48.878;9.632;2022-07-04T06:12:57;2.72;;;1.70;;
23745;SDS011;12053;48.878;9.632;2022-07-04T06:15:24;5.40;;;1.80;;
23745;SDS011;12053;48.878;9.632;2022-07-04T06:17:52;5.97;;;1.80;;
23745;SDS011;12053;48.878;9.632;2022-07-04T06:20:19;4.85;;;1.67;;
23745;SDS011;12053;48.878;9.632;2022-07-04T06:22:47;2.90;;;1.70;;
23745;SDS011;12053;48.878;9.632;2022-07-04T06:25:16;5.55;;;1.77;;
23745;SDS011;12053;48.878;9.632;2022-07-04T06:27:44;9.07;;;1.90;;
23745;SDS011;12053;48.878;9.632;2022-07-04T06:30:12;3.90;;;1.77;;
23745;SDS011;12053;48.878;9.632;2022-07-04T06:32:46;7.28;;;1.60;;
23745;SDS011;12053;48.878;9.632;2022-07-04T06:35:16;6.63;;;1.80;;
23745;SDS011;12053;48.878;9.632;2022-07-04T06:38:02;5.13;;;1.80;;
23745;SDS011;12053;48.878;9.632;2022-07-04T06:40:29;3.80;;;1.60;;
23745;SDS011;12053;48.878;9.632;2022-07-04T06:42:57;8.05;;;1.70;;
23745;SDS011;12053;48.878;9.632;2022-07-04T06:45:24;3.13;;;1.85;;
23745;SDS011;12053;48.878;9.632;2022-07-04T06:47:51;2.08;;;1.60;;
23745;SDS011;12053;48.878;9.632;2022-07-04T06:50:18;1.63;;;1.52;;
23745;SDS011;12053;48.878;9.632;2022-07-04T06:53:05;2.50;;;1.88;;
23745;SDS011;12053;48.878;9.632;2022-07-04T06:55:32;3.75;;;1.40;;
23745;SDS011;12053;48.878;9.632;2022-07-04T06:58:00;3.97;;;1.70;;
23745;SDS011;12053;48.878;9.632;2022-07-04T07:00:27;2.13;;;1.70;;
23745;SDS011;12053;48.878;9.632;2022-07-04T07:02:57;5.78;;;1.73;;
23745;SDS011;12053;48.878;9.632;2022-07-04T07:05:25;4.18;;;1.90;;
23745;SDS011;12053;48.878;9.632;2022-07-04T07:08:08;3.50;;;1.80;;
23745;SDS011;12053;48.878;9.632;2022-07-04T07:10:35;2.63;;;1.60;;
23745;SDS011;12053;48.878;9.632;2022-07-04T07:13:02;2.95;;;1.55;;
23745;SDS011;12053;48.878;9.632;2022-07-04T07:15:30;2.35;;;1.70;;
23745;SDS011;12053;48.878;9.632;2022-07-04T07:18:04;2.70;;;1.52;;
23745;SDS011;12053;48.878;9.632;2022-07-04T07:20:31;2.35;;;1.73;;
23745;SDS011;12053;48.878;9.632;2022-07-04T07:23:01;8.68;;;1.95;;
23745;SDS011;12053;48.878;9.632;2022-07-04T07:25:29;8.85;;;1.75;;
23745;SDS011;12053;48.878;9.632;2022-07-04T07:27:57;2.70;;;1.70;;
23745;SDS011;12053;48.878;9.632;2022-07-04T07:30:24;3.17;;;1.73;;
23745;SDS011;12053;48.878;9.632;2022-07-04T07:32:51;4.63;;;1.70;;
23745;SDS011;12053;48.878;9.632;2022-07-04T07:35:18;6.93;;;1.90;;
23745;SDS011;12053;48.878;9.632;2022-07-04T07:37:45;4.45;;;1.83;;
23745;SDS011;12053;48.878;9.632;2022-07-04T07:40:13;3.70;;;1.83;;
23745;SDS011;12053;48.878;9.632;2022-07-04T07:42:40;5.65;;;1.75;;
23745;SDS011;12053;48.878;9.632;2022-07-04T07:45:07;6.40;;;2.10;;
23745;SDS011;12053;48.878;9.632;2022-07-04T07:47:34;2.22;;;1.70;;
23745;SDS011;12053;48.878;9.632;2022-07-04T07:50:02;6.75;;;1.98;;
23745;SDS011;12053;48.878;9.632;2022-07-04T07:52:30;3.67;;;1.80;;
23745;SDS011;12053;48.878;9.632;2022-07-04T07:54:57;1.85;;;1.55;;
23745;SDS011;12053;48.878;9.632;2022-07-04T07:57:26;4.47;;;1.60;;
23745;SDS011;12053;48.878;9.632;2022-07-04T07:59:54;4.38;;;1.70;;
23745;SDS011;12053;48.878;9.632;2022-07-04T08:02:21;3.40;;;1.70;;
23745;SDS011;12053;48.878;9.632;2022-07-04T08:05:07;2.85;;;1.52;;
23745;SDS011;12053;48.878;9.632;2022-07-04T08:07:35;2.67;;;1.73;;
23745;SDS011;12053;48.878;9.632;2022-07-04T08:10:02;5.15;;;1.65;;
23745;SDS011;12053;48.878;9.632;2022-07-04T08:12:30;2.97;;;1.55;;
23745;SDS011;12053;48.878;9.632;2022-07-04T08:14:57;2.17;;;1.80;;
23745;SDS011;12053;48.878;9.632;2022-07-04T08:17:31;4.53;;;1.98;;
23745;SDS011;12053;48.878;9.632;2022-07-04T08:19:58;4.38;;;1.90;;
23745;SDS011;12053;48.878;9.632;2022-07-04T08:22:25;3.78;;;1.77;;
23745;SDS011;12053;48.878;9.632;2022-07-04T08:24:52;4.53;;;1.88;;
23745;SDS011;12053;48.878;9.632;2022-07-04T08:27:19;2.90;;;1.63;;
23745;SDS011;12053;48.878;9.632;2022-07-04T08:29:55;3.42;;;1.73;;
23745;SDS011;12053;48.878;9.632;2022-07-04T08:32:22;4.18;;;1.83;;
23745;SDS011;12053;48.878;9.632;2022-07-04T08:34:50;4.13;;;1.75;;
23745;SDS011;12053;48.878;9.632;2022-07-04T08:37:17;4.38;;;1.80;;
23745;SDS011;12053;48.878;9.632;2022-07-04T08:39:44;2.08;;;1.60;;
23745;SDS011;12053;48.878;9.632;2022-07-04T08:42:13;3.55;;;1.60;;
23745;SDS011;12053;48.878;9.632;2022-07-04T08:44:44;3.65;;;1.80;;
23745;SDS011;12053;48.878;9.632;2022-07-04T08:47:16;3.80;;;1.90;;
23745;SDS011;12053;48.878;9.632;2022-07-04T08:49:46;7.35;;;1.85;;
23745;SDS011;12053;48.878;9.632;2022-07-04T08:52:13;2.05;;;1.85;;
23745;SDS011;12053;48.878;9.632;2022-07-04T08:54:42;3.28;;;1.75;;
23745;SDS011;12053;48.878;9.632;2022-07-04T08:57:28;3.05;;;1.80;;
23745;SDS011;12053;48.878;9.632;2022-07-04T09:00:14;4.22;;;2.22;;
23745;SDS011;12053;48.878;9.632;2022-07-04T09:02:41;3.05;;;1.77;;
23745;SDS011;12053;48.878;9.632;2022-07-04T09:05:09;4.28;;;2.17;;
23745;SDS011;12053;48.878;9.632;2022-07-04T09:07:36;4.47;;;1.98;;
23745;SDS011;12053;48.878;9.632;2022-07-04T09:10:03;3.13;;;1.90;;
23745;SDS011;12053;48.878;9.632;2022-07-04T09:12:31;4.32;;;2.00;;
23745;SDS011;12053;48.878;9.632;2022-07-04T09:15:18;1.63;;;1.48;;
23745;SDS011;12053;48.878;9.632;2022-07-04T09:17:47;4.20;;;2.00;;
23745;SDS011;12053;48.878;9.632;2022-07-04T09:22:41;3.60;;;1.90;;
23745;SDS011;12053;48.878;9.632;2022-07-04T09:25:09;3.72;;;2.20;;
23745;SDS011;12053;48.878;9.632;2022-07-04T09:27:45;6.03;;;2.73;;
23745;SDS011;12053;48.878;9.632;2022-07-04T09:32:43;6.05;;;2.20;;
23745;SDS011;12053;48.878;9.632;2022-07-04T09:35:20;4.07;;;1.90;;
23745;SDS011;12053;48.878;9.632;2022-07-04T09:37:48;2.50;;;1.65;;
23745;SDS011;12053;48.878;9.632;2022-07-04T09:40:23;3.03;;;1.80;;
23745;SDS011;12053;48.878;9.632;2022-07-04T09:42:50;2.55;;;2.13;;
23745;SDS011;12053;48.878;9.632;2022-07-04T09:45:18;2.58;;;1.58;;
23745;SDS011;12053;48.878;9.632;2022-07-04T09:47:47;3.08;;;1.95;;
23745;SDS011;12053;48.878;9.632;2022-07-04T09:52:43;8.18;;;1.73;;
23745;SDS011;12053;48.878;9.632;2022-07-04T09:55:10;2.00;;;1.50;;
23745;SDS011;12053;48.878;9.632;2022-07-04T09:57:38;3.17;;;1.02;;
23745;SDS011;12053;48.878;9.632;2022-07-04T10:00:17;1.85;;;1.30;;
23745;SDS011;12053;48.878;9.632;2022-07-04T10:02:45;6.90;;;1.80;;
23745;SDS011;12053;48.878;9.632;2022-07-04T10:05:14;6.68;;;1.48;;
23745;SDS011;12053;48.878;9.632;2022-07-04T10:07:44;1.83;;;1.57;;
23745;SDS011;12053;48.878;9.632;2022-07-04T10:10:24;5.03;;;1.40;;
23745;SDS011;12053;48.878;9.632;2022-07-04T10:12:52;3.35;;;1.23;;
23745;SDS011;12053;48.878;9.632;2022-07-04T10:15:20;4.78;;;1.33;;
23745;SDS011;12053;48.878;9.632;2022-07-04T10:17:47;1.65;;;1.27;;
23745;SDS011;12053;48.878;9.632;2022-07-04T10:20:14;3.55;;;1.30;;
23745;SDS011;12053;48.878;9.632;2022-07-04T10:22:42;4.70;;;1.30;;
23745;SDS011;12053;48.878;9.632;2022-07-04T10:25:09;4.50;;;1.40;;
23745;SDS011;12053;48.878;9.632;2022-07-04T10:27:37;3.05;;;1.50;;
23745;SDS011;12053;48.878;9.632;2022-07-04T10:30:05;4.15;;;1.33;;
23745;SDS011;12053;48.878;9.632;2022-07-04T10:32:33;5.43;;;1.38;;
23745;SDS011;12053;48.878;9.632;2022-07-04T10:35:00;5.20;;;1.70;;
23745;SDS011;12053;48.878;9.632;2022-07-04T10:40:38;4.85;;;1.50;;
23745;SDS011;12053;48.878;9.632;2022-07-04T10:43:01;6.63;;;1.70;;
23745;SDS011;12053;48.878;9.632;2022-07-04T10:45:31;4.75;;;1.52;;
23745;SDS011;12053;48.878;9.632;2022-07-04T10:47:58;3.92;;;1.67;;
23745;SDS011;12053;48.878;9.632;2022-07-04T10:50:29;3.40;;;1.55;;
23745;SDS011;12053;48.878;9.632;2022-07-04T10:53:08;2.45;;;1.40;;
23745;SDS011;12053;48.878;9.632;2022-07-04T10:55:36;5.13;;;1.65;;
23745;SDS011;12053;48.878;9.632;2022-07-04T10:58:03;2.40;;;1.48;;
23745;SDS011;12053;48.878;9.632;2022-07-04T11:00:30;6.40;;;1.63;;
23745;SDS011;12053;48.878;9.632;2022-07-04T11:03:14;4.97;;;1.70;;
23745;SDS011;12053;48.878;9.632;2022-07-04T11:05:42;2.05;;;1.50;;
23745;SDS011;12053;48.878;9.632;2022-07-04T11:08:09;5.07;;;1.70;;
23745;SDS011;12053;48.878;9.632;2022-07-04T11:10:36;3.53;;;1.83;;
23745;SDS011;12053;48.878;9.632;2022-07-04T11:13:05;5.68;;;1.50;;
23745;SDS011;12053;48.878;9.632;2022-07-04T11:18:02;3.42;;;1.40;;
23745;SDS011;12053;48.878;9.632;2022-07-04T11:20:31;3.33;;;1.30;;
23745;SDS011;12053;48.878;9.632;2022-07-04T11:25:32;5.57;;;1.20;;
23745;SDS011;12053;48.878;9.632;2022-07-04T11:28:18;3.78;;;1.33;;
23745;SDS011;12053;48.878;9.632;2022-07-04T11:31:05;1.88;;;1.35;;
23745;SDS011;12053;48.878;9.632;2022-07-04T11:33:33;6.85;;;1.40;;
23745;SDS011;12053;48.878;9.632;2022-07-04T11:38:51;6.25;;;1.65;;
23745;SDS011;12053;48.878;9.632;2022-07-04T11:41:29;2.55;;;1.48;;
23745;SDS011;12053;48.878;9.632;2022-07-04T11:44:18;2.92;;;1.40;;
23745;SDS011;12053;48.878;9.632;2022-07-04T11:49:49;4.03;;;1.50;;
23745;SDS011;12053;48.878;9.632;2022-07-04T11:52:17;1.90;;;1.35;;
23745;SDS011;12053;48.878;9.632;2022-07-04T11:55:05;4.57;;;1.40;;
23745;SDS011;12053;48.878;9.632;2022-07-04T11:57:33;5.88;;;1.75;;
23745;SDS011;12053;48.878;9.632;2022-07-04T12:02:30;3.92;;;1.40;;
23745;SDS011;12053;48.878;9.632;2022-07-04T12:04:59;1.90;;;1.65;;
23745;SDS011;12053;48.878;9.632;2022-07-04T12:07:29;3.72;;;1.60;;
23745;SDS011;12053;48.878;9.632;2022-07-04T12:10:14;2.85;;;1.58;;
23745;SDS011;12053;48.878;9.632;2022-07-04T12:12:55;2.63;;;1.38;;
23745;SDS011;12053;48.878;9.632;2022-07-04T12:15:23;2.10;;;1.27;;
23745;SDS011;12053;48.878;9.632;2022-07-04T12:17:53;3.97;;;1.30;;
23745;SDS011;12053;48.878;9.632;2022-07-04T12:20:24;1.77;;;1.13;;
23745;SDS011;12053;48.878;9.632;2022-07-04T12:22:53;4.07;;;1.45;;
23745;SDS011;12053;48.878;9.632;2022-07-04T12:25:28;5.45;;;1.60;;
23745;SDS011;12053;48.878;9.632;2022-07-04T12:27:59;3.13;;;1.70;;
23745;SDS011;12053;48.878;9.632;2022-07-04T12:30:28;3.70;;;1.50;;
23745;SDS011;12053;48.878;9.632;2022-07-04T12:33:06;3.25;;;1.20;;
23745;SDS011;12053;48.878;9.632;2022-07-04T12:35:44;2.15;;;1.35;;
23745;SDS011;12053;48.878;9.632;2022-07-04T12:43:23;2.65;;;1.10;;
23745;SDS011;12053;48.878;9.632;2022-07-04T12:45:52;2.00;;;1.27;;
23745;SDS011;12053;48.878;9.632;2022-07-04T12:48:26;3.45;;;1.40;;
23745;SDS011;12053;48.878;9.632;2022-07-04T12:51:10;3.77;;;1.30;;
23745;SDS011;12053;48.878;9.632;2022-07-04T12:53:39;3.35;;;1.70;;
23745;SDS011;12053;48.878;9.632;2022-07-04T12:56:07;3.53;;;1.33;;
23745;SDS011;12053;48.878;9.632;2022-07-04T12:58:34;2.65;;;1.30;;
23745;SDS011;12053;48.878;9.632;2022-07-04T13:01:02;3.88;;;1.48;;
23745;SDS011;12053;48.878;9.632;2022-07-04T13:03:29;3.22;;;1.17;;
23745;SDS011;12053;48.878;9.632;2022-07-04T13:05:57;2.50;;;1.27;;
23745;SDS011;12053;48.878;9.632;2022-07-04T13:08:24;2.63;;;1.30;;
23745;SDS011;12053;48.878;9.632;2022-07-04T13:10:51;3.50;;;1.52;;
23745;SDS011;12053;48.878;9.632;2022-07-04T13:13:38;2.45;;;1.38;;
23745;SDS011;12053;48.878;9.632;2022-07-04T13:16:05;4.57;;;1.70;;
23745;SDS011;12053;48.878;9.632;2022-07-04T13:18:33;3.08;;;1.30;;
23745;SDS011;12053;48.878;9.632;2022-07-04T13:21:00;1.65;;;1.27;;
23745;SDS011;12053;48.878;9.632;2022-07-04T13:23:27;6.05;;;1.52;;
23745;SDS011;12053;48.878;9.632;2022-07-04T13:25:55;7.28;;;1.40;;
23745;SDS011;12053;48.878;9.632;2022-07-04T13:28:22;2.58;;;1.30;;
23745;SDS011;12053;48.878;9.632;2022-07-04T13:30:49;1.92;;;1.40;;
23745;SDS011;12053;48.878;9.632;2022-07-04T13:33:16;5.57;;;1.60;;
23745;SDS011;12053;48.878;9.632;2022-07-04T13:35:44;5.03;;;1.58;;
23745;SDS011;12053;48.878;9.632;2022-07-04T13:38:11;3.13;;;1.40;;
23745;SDS011;12053;48.878;9.632;2022-07-04T13:40:44;4.65;;;1.48;;
23745;SDS011;12053;48.878;9.632;2022-07-04T13:43:22;5.13;;;1.40;;
23745;SDS011;12053;48.878;9.632;2022-07-04T13:45:50;5.18;;;1.40;;
23745;SDS011;12053;48.878;9.632;2022-07-04T13:48:20;2.45;;;1.40;;
23745;SDS011;12053;48.878;9.632;2022-07-04T13:50:47;5.07;;;1.30;;
23745;SDS011;12053;48.878;9.632;2022-07-04T13:53:14;3.03;;;1.45;;
23745;SDS011;12053;48.878;9.632;2022-07-04T13:55:42;6.03;;;1.50;;
23745;SDS011;12053;48.878;9.632;2022-07-04T13:58:13;4.03;;;1.33;;
23745;SDS011;12053;48.878;9.632;2022-07-04T14:00:41;4.88;;;1.25;;
23745;SDS011;12053;48.878;9.632;2022-07-04T14:03:11;4.75;;;1.30;;
23745;SDS011;12053;48.878;9.632;2022-07-04T14:05:42;2.05;;;1.10;;
23745;SDS011;12053;48.878;9.632;2022-07-04T14:08:09;3.80;;;1.27;;
23745;SDS011;12053;48.878;9.632;2022-07-04T14:10:36;4.03;;;1.60;;
23745;SDS011;12053;48.878;9.632;2022-07-04T14:13:04;5.78;;;1.40;;
23745;SDS011;12053;48.878;9.632;2022-07-04T14:15:36;8.55;;;2.45;;
23745;SDS011;12053;48.878;9.632;2022-07-04T14:18:03;3.67;;;1.52;;
23745;SDS011;12053;48.878;9.632;2022-07-04T14:20:33;2.08;;;1.30;;
23745;SDS011;12053;48.878;9.632;2022-07-04T14:23:00;3.75;;;1.33;;
23745;SDS011;12053;48.878;9.632;2022-07-04T14:25:28;4.85;;;1.48;;
23745;SDS011;12053;48.878;9.632;2022-07-04T14:27:55;5.13;;;1.35;;
23745;SDS011;12053;48.878;9.632;2022-07-04T14:30:22;2.22;;;1.35;;
23745;SDS011;12053;48.878;9.632;2022-07-04T14:32:49;2.47;;;1.25;;
23745;SDS011;12053;48.878;9.632;2022-07-04T14:35:17;5.75;;;1.42;;
23745;SDS011;12053;48.878;9.632;2022-07-04T14:37:44;4.35;;;1.30;;
23745;SDS011;12053;48.878;9.632;2022-07-04T14:40:11;2.10;;;1.20;;
23745;SDS011;12053;48.878;9.632;2022-07-04T14:42:39;1.45;;;1.08;;
23745;SDS011;12053;48.878;9.632;2022-07-04T14:45:06;0.90;;;0.90;;
23745;SDS011;12053;48.878;9.632;2022-07-04T14:47:33;3.70;;;1.40;;
23745;SDS011;12053;48.878;9.632;2022-07-04T14:50:01;1.60;;;1.10;;
23745;SDS011;12053;48.878;9.632;2022-07-04T14:52:29;3.63;;;1.50;;
23745;SDS011;12053;48.878;9.632;2022-07-04T14:54:57;1.77;;;1.20;;
23745;SDS011;12053;48.878;9.632;2022-07-04T14:57:24;1.95;;;1.50;;
23745;SDS011;12053;48.878;9.632;2022-07-04T14:59:51;3.80;;;1.40;;
23745;SDS011;12053;48.878;9.632;2022-07-04T15:02:19;5.03;;;1.35;;
23745;SDS011;12053;48.878;9.632;2022-07-04T15:04:46;7.47;;;1.40;;
23745;SDS011;12053;48.878;9.632;2022-07-04T15:07:13;1.85;;;1.20;;
23745;SDS011;12053;48.878;9.632;2022-07-04T15:09:40;3.20;;;1.20;;
23745;SDS011;12053;48.878;9.632;2022-07-04T15:12:08;2.00;;;1.10;;
23745;SDS011;12053;48.878;9.632;2022-07-04T15:14:35;3.05;;;1.50;;
23745;SDS011;12053;48.878;9.632;2022-07-04T15:17:02;4.03;;;1.13;;
23745;SDS011;12053;48.878;9.632;2022-07-04T15:19:35;2.45;;;1.00;;
23745;SDS011;12053;48.878;9.632;2022-07-04T15:22:23;4.30;;;1.30;;
23745;SDS011;12053;48.878;9.632;2022-07-04T15:25:08;1.95;;;1.40;;
23745;SDS011;12053;48.878;9.632;2022-07-04T15:27:36;3.75;;;1.20;;